Strona główna
METAR-TAF:

METAR-TAF

Lotnisko :

Baza lotnicza

Meppen, Niemcy

Szerokość geograficzna: 52-43-24N, Długość geograficzna: 007-19-35E, wysokość: 21 m

Aktualna obserwacja pogody

Raport powstał 46 minut temu, godzina 11:20 UTC
Wiatr 6 kt od południowo-południowy zachód
Temperatura 9°C
Wilgotność 76%
Ciśnienie 1005 hPa
Widzialność 10 km lub więcej
Mało chmury na wysokości 1400 ft
Rozproszone chmury na wysokości 6800 ft
Przerywane chmury na wysokości 11000 ft

METAR: ETWM 161120Z 21006KT 9999 FEW014 SCT068 BKN110 09/05 Q1005 BLU

czas: 13:06 (12:06 UTC)


TAF: brakujący

Obserwacja i prognoza pogody dla ponad 4000 lotnisk (raport METAR i TAF).

Dostępne stacje oznaczono żółtymi i czerwonymi punktami na mapie.

Najedź kursorem aby zobaczyć nazwę stacji.

Kliknij aby zobaczyć obserwacje i prognozy pogody.

Aby zmienić mapę: kliknij na zielony przycisk z czarnym krzyżykiem, aby powiększyć; na zielony przycisk z myślnikiem, aby pomniejszyć; na zielone strzałki, aby przejść do map sąsiednich.


METAR-TAF: